createdAt,value
2023-04-01T00:01:08.523Z,649.4
2023-04-01T00:02:52.226Z,646.1
2023-04-01T00:04:35.792Z,641.8
2023-04-01T00:06:19.666Z,641.7
2023-04-01T00:08:03.161Z,642.2
2023-04-01T00:09:47.027Z,640.7
2023-04-01T00:11:30.762Z,639.6
2023-04-01T00:13:14.380Z,636.5
2023-04-01T00:14:58.099Z,636.6
2023-04-01T00:16:41.778Z,635.7
2023-04-01T00:18:25.373Z,635.5
2023-04-01T00:20:09.193Z,630.8
2023-04-01T00:21:52.851Z,629
2023-04-01T00:23:36.473Z,627.2
2023-04-01T00:25:20.178Z,623.6
2023-04-01T00:27:04.087Z,621.5
2023-04-01T00:28:47.858Z,620.1
2023-04-01T00:30:31.439Z,618.2
2023-04-01T00:32:15.102Z,615.3
2023-04-01T00:33:58.920Z,614.2
2023-04-01T00:35:42.506Z,613
2023-04-01T00:37:26.276Z,610.1
2023-04-01T00:39:10.069Z,609.1
2023-04-01T00:40:53.708Z,611
2023-04-01T00:42:37.244Z,610.1
2023-04-01T00:44:21.090Z,610.6
2023-04-01T00:46:04.704Z,611.2
2023-04-01T00:47:48.510Z,609.1
2023-04-01T00:49:32.230Z,606.4
2023-04-01T00:51:15.713Z,606.7
2023-04-01T00:52:59.575Z,606.2
2023-04-01T00:54:43.546Z,604.7
2023-04-01T00:56:27.054Z,604.8
2023-04-01T00:58:10.681Z,603.8
2023-04-01T00:59:54.368Z,603.4
2023-04-01T01:01:38.070Z,597.8
2023-04-01T01:03:21.857Z,593.8
2023-04-01T01:05:05.424Z,594.9
2023-04-01T01:06:49.211Z,594
2023-04-01T01:08:32.934Z,594.7
2023-04-01T01:10:16.413Z,591.5
2023-04-01T01:12:00.211Z,588.5
2023-04-01T01:13:43.860Z,589.9
2023-04-01T01:15:27.518Z,589.1
2023-04-01T01:17:11.343Z,587
2023-04-01T01:18:54.964Z,586.1
2023-04-01T01:20:38.754Z,587.2
2023-04-01T01:22:22.414Z,589.7
2023-04-01T01:24:06.267Z,590.9
2023-04-01T01:25:49.738Z,593.2
2023-04-01T01:27:33.583Z,592.8
2023-04-01T01:29:17.215Z,591.5
2023-04-01T01:31:00.882Z,589
2023-04-01T01:32:44.784Z,588.7
2023-04-01T01:34:28.361Z,590
2023-04-01T01:36:12.101Z,587.6
2023-04-01T01:37:55.786Z,582.9
2023-04-01T01:39:39.484Z,579.2
2023-04-01T01:41:23.177Z,577.2
2023-04-01T01:43:06.892Z,575
2023-04-01T01:44:50.634Z,574.6
2023-04-01T01:46:34.198Z,576.6
2023-04-01T01:48:18.018Z,576.9
2023-04-01T01:50:01.729Z,574.5
2023-04-01T01:51:45.265Z,572
2023-04-01T01:53:29.154Z,570.1
2023-04-01T01:55:12.669Z,570
2023-04-01T01:56:56.404Z,568.7
2023-04-01T01:58:40.139Z,566.9
2023-04-01T02:00:23.900Z,567.5
2023-04-01T02:02:07.611Z,566.2
2023-04-01T02:03:51.239Z,565.6
2023-04-01T02:05:35.050Z,566.2
2023-04-01T02:07:18.586Z,565.5
2023-04-01T02:09:02.484Z,563
2023-04-01T02:10:45.992Z,559.8
2023-04-01T02:12:29.857Z,560.1
2023-04-01T02:14:13.559Z,556.5
2023-04-01T02:15:57.257Z,554.1
2023-04-01T02:17:40.944Z,553.7
2023-04-01T02:19:24.679Z,552.4
2023-04-01T02:21:08.427Z,554.4
2023-04-01T02:22:52.114Z,554.3
2023-04-01T02:24:35.762Z,552.5
2023-04-01T02:26:19.406Z,554.8
2023-04-01T02:28:03.195Z,553.1
2023-04-01T02:29:46.688Z,553.2
2023-04-01T02:31:30.576Z,555.4
2023-04-01T02:33:14.339Z,555.9
2023-04-01T02:34:57.830Z,553.1
2023-04-01T02:36:41.712Z,551.1
2023-04-01T02:38:25.379Z,548
2023-04-01T02:40:09.034Z,546.7
2023-04-01T02:41:52.692Z,545.9
2023-04-01T02:43:36.405Z,547.2
2023-04-01T02:45:20.184Z,548
2023-04-01T02:47:03.879Z,549.8
2023-04-01T02:48:47.409Z,550
2023-04-01T02:50:31.172Z,549.8
2023-04-01T02:52:14.846Z,551.5
2023-04-01T02:53:58.631Z,552.1
2023-04-01T02:55:42.588Z,551.9
2023-04-01T02:57:26.032Z,550.5
2023-04-01T02:59:10.172Z,551.3
2023-04-01T03:00:53.328Z,550.4
2023-04-01T03:02:37.186Z,551.6
2023-04-01T03:04:20.855Z,549.6
2023-04-01T03:06:04.610Z,547.2
2023-04-01T03:07:48.219Z,543.8
2023-04-01T03:09:31.825Z,541.9
2023-04-01T03:11:15.533Z,538.6
2023-04-01T03:12:59.403Z,540.3
2023-04-01T03:14:43.104Z,542.6
2023-04-01T03:16:26.820Z,540.6
2023-04-01T03:18:10.476Z,542.3
2023-04-01T03:19:54.211Z,543.7
2023-04-01T03:21:37.882Z,544
2023-04-01T03:23:21.641Z,544.3
2023-04-01T03:25:05.131Z,545.2
2023-04-01T03:26:48.833Z,546.6
2023-04-01T03:28:32.669Z,548.8
2023-04-01T03:30:16.383Z,547.6
2023-04-01T03:32:00.065Z,550.3
2023-04-01T03:33:43.633Z,549.6
2023-04-01T03:35:27.452Z,545.5
2023-04-01T03:37:11.188Z,542
2023-04-01T03:38:54.820Z,539.9
2023-04-01T03:40:38.435Z,538.6
2023-04-01T03:42:22.359Z,536.4
2023-04-01T03:44:05.831Z,535.4
2023-04-01T03:45:49.504Z,530.5
2023-04-01T03:47:33.230Z,531.5
2023-04-01T03:49:17.082Z,532.5
2023-04-01T03:51:00.808Z,531.2
2023-04-01T03:52:44.525Z,531.7
2023-04-01T03:54:28.086Z,526.4
2023-04-01T03:56:11.847Z,524.6
2023-04-01T03:57:55.604Z,524.9
2023-04-01T03:59:39.230Z,524
2023-04-01T04:01:22.969Z,523.3
2023-04-01T04:03:06.704Z,527.6
2023-04-01T04:04:50.396Z,529.5
2023-04-01T04:06:34.074Z,532
2023-04-01T04:08:17.688Z,533.6
2023-04-01T04:10:01.581Z,533.1
2023-04-01T04:11:45.233Z,530
2023-04-01T04:13:28.912Z,529
2023-04-01T04:15:12.465Z,529
2023-04-01T04:16:56.346Z,533.3
2023-04-01T04:18:39.959Z,532.7
2023-04-01T04:20:23.648Z,532.6
2023-04-01T04:22:07.262Z,531
2023-04-01T04:23:50.953Z,532.4
2023-04-01T04:25:34.754Z,531.6
2023-04-01T04:27:18.513Z,531.4
2023-04-01T04:29:02.079Z,530.9
2023-04-01T04:30:45.770Z,529.3
2023-04-01T04:32:29.624Z,528.2
2023-04-01T04:34:13.326Z,526.8
2023-04-01T04:35:57.043Z,527.9
2023-04-01T04:37:40.634Z,526.5
2023-04-01T04:39:24.461Z,528.2
2023-04-01T04:41:07.958Z,526.9
2023-04-01T04:42:51.858Z,527.8
2023-04-01T04:44:35.494Z,526.1
2023-04-01T04:46:19.238Z,523.6
2023-04-01T04:48:02.937Z,519.3
2023-04-01T04:49:46.502Z,519.8
2023-04-01T04:51:30.359Z,518.1
2023-04-01T04:53:14.000Z,514.1
2023-04-01T04:54:57.596Z,515.1
2023-04-01T04:56:41.327Z,514.1
2023-04-01T04:58:24.988Z,511.6
2023-04-01T05:00:08.720Z,511.4
2023-04-01T05:01:52.385Z,514.5
2023-04-01T05:03:36.232Z,518.3
2023-04-01T05:05:19.803Z,515.8
2023-04-01T05:07:03.692Z,515.4
2023-04-01T05:08:47.207Z,514.1
2023-04-01T05:10:31.030Z,513.6
2023-04-01T05:12:14.706Z,511.8
2023-04-01T05:13:58.394Z,512.8
2023-04-01T05:15:42.109Z,513.1
2023-04-01T05:17:25.696Z,513.3
2023-04-01T05:19:09.408Z,513.6
2023-04-01T05:20:53.114Z,514.5
2023-04-01T05:22:36.818Z,515.8
2023-04-01T05:24:20.594Z,512.3
2023-04-01T05:26:04.362Z,509.4
2023-04-01T05:27:48.001Z,507.8
2023-04-01T05:29:31.791Z,507
2023-04-01T05:31:15.426Z,506.3
2023-04-01T05:32:59.016Z,503.8
2023-04-01T05:34:42.759Z,503
2023-04-01T05:36:26.445Z,505.6
2023-04-01T05:38:10.230Z,506.1
2023-04-01T05:39:53.976Z,505.7
2023-04-01T05:41:37.639Z,507.4
2023-04-01T05:43:21.292Z,507.5
2023-04-01T05:45:04.989Z,507
2023-04-01T05:46:48.648Z,505.6
2023-04-01T05:48:32.378Z,508.5
2023-04-01T05:50:16.085Z,507.1
2023-04-01T05:51:59.810Z,506.9
2023-04-01T05:53:43.436Z,504.5
2023-04-01T05:55:27.158Z,503.9
2023-04-01T05:57:10.914Z,504.1
2023-04-01T05:58:54.583Z,503
2023-04-01T06:00:38.368Z,501.4
2023-04-01T06:02:22.021Z,500.9
2023-04-01T06:04:05.682Z,500.6
2023-04-01T06:05:49.491Z,503
2023-04-01T06:07:33.242Z,501.1
2023-04-01T06:09:16.750Z,498.8
2023-04-01T06:11:00.573Z,497.5
2023-04-01T06:12:44.264Z,500.7
2023-04-01T06:14:27.834Z,500.7
2023-04-01T06:16:11.625Z,499.2
2023-04-01T06:17:55.246Z,500.5
2023-04-01T06:19:39.076Z,502.6
2023-04-01T06:21:22.840Z,505.4
2023-04-01T06:23:06.499Z,504.1
2023-04-01T06:24:50.127Z,503.1
2023-04-01T06:26:33.807Z,501.9
2023-04-01T06:28:17.681Z,503.3
2023-04-01T06:30:01.199Z,501.6
2023-04-01T06:31:45.023Z,499.5
2023-04-01T06:33:28.757Z,499.1
2023-04-01T06:35:12.530Z,501.6
2023-04-01T06:36:56.154Z,502.2
2023-04-01T06:38:39.869Z,499.9
2023-04-01T06:40:23.508Z,504.1
2023-04-01T06:42:07.251Z,505.2
2023-04-01T06:43:50.959Z,506.3
2023-04-01T06:45:34.656Z,505.2
2023-04-01T06:47:18.352Z,506.4
2023-04-01T06:49:01.875Z,504.5
2023-04-01T06:50:45.740Z,501.5
2023-04-01T06:52:29.516Z,501.7
2023-04-01T06:54:13.172Z,503.6
2023-04-01T06:55:56.707Z,503.9
2023-04-01T06:57:40.523Z,505.8
2023-04-01T06:59:24.299Z,507.1
2023-04-01T07:01:07.951Z,505.5
2023-04-01T07:02:51.684Z,511.9
2023-04-01T07:04:35.220Z,532.5
2023-04-01T07:06:18.958Z,548.6
2023-04-01T07:08:02.799Z,558.9
2023-04-01T07:09:46.293Z,565.9
2023-04-01T07:11:30.134Z,577.8
2023-04-01T07:13:13.737Z,588.6
2023-04-01T07:14:57.587Z,615.2
2023-04-01T07:16:41.256Z,679.5
2023-04-01T07:18:24.961Z,719.6
2023-04-01T07:20:08.515Z,721.7
2023-04-01T07:21:52.338Z,735.9
2023-04-01T07:23:36.095Z,743.8
2023-04-01T07:25:19.735Z,750.3
2023-04-01T07:27:03.517Z,758.4
2023-04-01T07:28:47.132Z,763.8
2023-04-01T07:30:30.839Z,763.8
2023-04-01T07:32:14.475Z,776.2
2023-04-01T07:33:58.260Z,790.9
2023-04-01T07:35:42.022Z,796.9
2023-04-01T07:37:25.675Z,799.7
2023-04-01T07:39:09.359Z,806.3
2023-04-01T07:40:53.087Z,832
2023-04-01T07:42:36.745Z,841.2
2023-04-01T07:44:20.429Z,849.8
2023-04-01T07:46:04.222Z,861.7
2023-04-01T07:47:47.914Z,894.4
2023-04-01T07:49:31.576Z,879.6
2023-04-01T07:51:15.232Z,859.2
2023-04-01T07:52:59.015Z,855.5
2023-04-01T07:54:42.690Z,849.4
2023-04-01T07:56:26.417Z,843.7
2023-04-01T07:58:10.102Z,836.6
2023-04-01T07:59:53.781Z,830.3
2023-04-01T08:01:37.520Z,826.2
2023-04-01T08:03:21.236Z,823.5
2023-04-01T08:05:04.776Z,820.1
2023-04-01T08:06:48.584Z,819.7
2023-04-01T08:08:32.384Z,818.6
2023-04-01T08:10:16.051Z,816.4
2023-04-01T08:11:59.578Z,816.6
2023-04-01T08:13:43.370Z,813.6
2023-04-01T08:15:26.992Z,811.6
2023-04-01T08:17:10.837Z,812.8
2023-04-01T08:18:54.578Z,813.9
2023-04-01T08:20:38.257Z,821.2
2023-04-01T08:22:21.801Z,820.2
2023-04-01T08:24:05.730Z,822.7
2023-04-01T08:25:49.386Z,823.5
2023-04-01T08:27:33.075Z,821
2023-04-01T08:29:16.601Z,821
2023-04-01T08:31:00.425Z,818.9
2023-04-01T08:32:44.005Z,822.8
2023-04-01T08:34:27.857Z,825.3
2023-04-01T08:36:11.524Z,824.2
2023-04-01T08:37:55.272Z,823.3
2023-04-01T08:39:38.932Z,826.8
2023-04-01T08:41:22.611Z,831.7
2023-04-01T08:43:06.393Z,835.4
2023-04-01T08:44:50.113Z,838.9
2023-04-01T08:46:33.814Z,847.6
2023-04-01T08:48:17.542Z,853
2023-04-01T08:50:01.110Z,857.4
2023-04-01T08:51:44.844Z,857
2023-04-01T08:53:28.479Z,855.5
2023-04-01T08:55:12.185Z,858
2023-04-01T08:56:55.993Z,860.4
2023-04-01T08:58:39.669Z,859.9
2023-04-01T09:00:23.440Z,862.5
2023-04-01T09:02:07.152Z,867.4
2023-04-01T09:03:50.809Z,869.1
2023-04-01T09:05:34.463Z,871.4
2023-04-01T09:07:18.126Z,872.1
2023-04-01T09:09:01.981Z,870.2
2023-04-01T09:10:45.883Z,870.1
2023-04-01T09:12:29.292Z,872.9
2023-04-01T09:14:13.074Z,869.9
2023-04-01T09:15:56.680Z,869.3
2023-04-01T09:17:40.474Z,868.5
2023-04-01T09:19:24.065Z,869.3
2023-04-01T09:21:07.702Z,871.8
2023-04-01T09:22:51.566Z,873.5
2023-04-01T09:24:35.358Z,872.6
2023-04-01T09:26:18.913Z,877.7
2023-04-01T09:28:02.778Z,882.6
2023-04-01T09:29:46.429Z,884.6
2023-04-01T09:31:30.212Z,884.9
2023-04-01T09:33:13.723Z,884.1
2023-04-01T09:34:57.510Z,886
2023-04-01T09:36:41.264Z,884.9
2023-04-01T09:38:24.773Z,887.4
2023-04-01T09:40:08.640Z,892.3
2023-04-01T09:41:52.365Z,897
2023-04-01T09:43:36.008Z,897.1
2023-04-01T09:45:19.698Z,900.6
2023-04-01T09:47:03.443Z,904.4
2023-04-01T09:48:47.117Z,908.3
2023-04-01T09:50:30.657Z,910.2
2023-04-01T09:52:14.514Z,912.8
2023-04-01T09:53:58.236Z,914.5
2023-04-01T09:55:41.870Z,912.5
2023-04-01T09:57:25.540Z,911.5
2023-04-01T09:59:09.350Z,906.4
2023-04-01T10:00:53.040Z,905.4
2023-04-01T10:02:36.666Z,904.7
2023-04-01T10:04:20.421Z,905
2023-04-01T10:06:04.174Z,903.8
2023-04-01T10:07:47.856Z,901.3
2023-04-01T10:09:31.522Z,900.1
2023-04-01T10:11:15.269Z,900.9
2023-04-01T10:12:58.963Z,899.1
2023-04-01T10:14:42.481Z,901.6
2023-04-01T10:16:26.347Z,902.8
2023-04-01T10:18:10.045Z,902.1
2023-04-01T10:19:53.737Z,905.5
2023-04-01T10:21:37.290Z,905
2023-04-01T10:23:21.133Z,901.8
2023-04-01T10:25:04.702Z,901.1
2023-04-01T10:26:48.387Z,902.8
2023-04-01T10:28:32.225Z,902.9
2023-04-01T10:30:15.969Z,902.2
2023-04-01T10:31:59.668Z,905
2023-04-01T10:33:43.297Z,906.9
2023-04-01T10:35:27.054Z,902.3
2023-04-01T10:37:10.761Z,887.3
2023-04-01T10:38:54.497Z,870.4
2023-04-01T10:40:38.171Z,867.3
2023-04-01T10:42:21.900Z,869.4
2023-04-01T10:44:05.589Z,865.2
2023-04-01T10:45:49.267Z,860.4
2023-04-01T10:47:32.830Z,861.7
2023-04-01T10:49:16.688Z,859.9
2023-04-01T10:51:00.262Z,860.1
2023-04-01T10:52:43.940Z,860.9
2023-04-01T10:54:27.917Z,864.9
2023-04-01T10:56:11.755Z,866.5
2023-04-01T10:57:55.135Z,871.4
2023-04-01T10:59:38.884Z,874.4
2023-04-01T11:01:22.648Z,877.5
2023-04-01T11:03:06.132Z,878.7
2023-04-01T11:04:50.017Z,882.2
2023-04-01T11:06:33.769Z,881.6
2023-04-01T11:08:17.403Z,877.9
2023-04-01T11:10:01.136Z,879.2
2023-04-01T11:11:44.660Z,880.9
2023-04-01T11:13:28.572Z,883.7
2023-04-01T11:15:12.061Z,883.4
2023-04-01T11:16:55.780Z,882
2023-04-01T11:18:39.479Z,880.3
2023-04-01T11:20:26.765Z,882.7
2023-04-01T11:22:06.884Z,884.7
2023-04-01T11:23:50.636Z,881
2023-04-01T11:25:34.328Z,876.8
2023-04-01T11:27:18.045Z,875.9
2023-04-01T11:29:01.738Z,876.9
2023-04-01T11:30:45.542Z,877.9
2023-04-01T11:32:29.150Z,881.5
2023-04-01T11:34:12.947Z,889.8
2023-04-01T11:35:56.772Z,900.7
2023-04-01T11:37:40.464Z,910.3
2023-04-01T11:39:24.061Z,914.9
2023-04-01T11:41:07.670Z,913.7
2023-04-01T11:42:51.335Z,908.4
2023-04-01T11:44:35.103Z,895
2023-04-01T11:46:18.731Z,882.9
2023-04-01T11:48:02.576Z,877.1
2023-04-01T11:49:46.293Z,875.8
2023-04-01T11:51:29.836Z,871.9
2023-04-01T11:53:13.557Z,872.5
2023-04-01T11:54:57.242Z,870.7
2023-04-01T11:56:40.946Z,865.3
2023-04-01T11:58:24.666Z,864.4
2023-04-01T12:00:08.479Z,860.3
2023-04-01T12:01:52.060Z,860
2023-04-01T12:03:35.757Z,863.8
2023-04-01T12:05:19.467Z,866
2023-04-01T12:07:03.177Z,863
2023-04-01T12:08:46.879Z,862.8
2023-04-01T12:10:30.596Z,863.6
2023-04-01T12:12:14.292Z,863.4
2023-04-01T12:13:58.001Z,863.9
2023-04-01T12:15:41.701Z,861.5
2023-04-01T12:17:25.406Z,860.1
2023-04-01T12:19:09.113Z,858.1
2023-04-01T12:20:52.791Z,858.7
2023-04-01T12:22:36.497Z,856.1
2023-04-01T12:24:20.206Z,856.1
2023-04-01T12:26:03.923Z,854.4
2023-04-01T12:27:47.603Z,855.1
2023-04-01T12:29:31.310Z,854.3
2023-04-01T12:31:15.023Z,855.1
2023-04-01T12:32:58.715Z,858.2
2023-04-01T12:34:42.428Z,870.6
2023-04-01T12:36:26.124Z,874.1
2023-04-01T12:38:09.828Z,870.5
2023-04-01T12:39:53.551Z,867.9
2023-04-01T12:41:37.310Z,869.6
2023-04-01T12:43:20.961Z,872.6
2023-04-01T12:45:04.652Z,875.7
2023-04-01T12:46:48.355Z,876.4
2023-04-01T12:48:32.040Z,874
2023-04-01T12:50:15.747Z,873.7
2023-04-01T12:51:59.443Z,872
2023-04-01T12:53:43.156Z,872.8
2023-04-01T12:55:26.839Z,875.5
2023-04-01T12:57:10.567Z,877
2023-04-01T12:58:54.268Z,878.9
2023-04-01T13:00:38.017Z,878.3
2023-04-01T13:02:21.664Z,872.2
2023-04-01T13:04:05.368Z,861.1
2023-04-01T13:05:49.151Z,859
2023-04-01T13:07:32.879Z,863.1
2023-04-01T13:09:16.489Z,883.5
2023-04-01T13:11:00.179Z,898.6
2023-04-01T13:12:43.933Z,906.1
2023-04-01T13:14:27.575Z,915.2
2023-04-01T13:16:11.296Z,921.8
2023-04-01T13:17:55.039Z,924.9
2023-04-01T13:19:38.715Z,922.4
2023-04-01T13:21:22.376Z,909.4
2023-04-01T13:23:06.112Z,903.4
2023-04-01T13:24:49.786Z,900.1
2023-04-01T13:26:33.515Z,900.3
2023-04-01T13:28:17.205Z,899.6
2023-04-01T13:30:00.892Z,899.6
2023-04-01T13:31:44.607Z,901.7
2023-04-01T13:33:28.298Z,899.9
2023-04-01T13:35:12.024Z,900.2
2023-04-01T13:36:55.704Z,906.6
2023-04-01T13:38:39.402Z,911.8
2023-04-01T13:40:23.105Z,917.6
2023-04-01T13:42:06.863Z,922.2
2023-04-01T13:43:50.515Z,930.7
2023-04-01T13:45:34.295Z,931.3
2023-04-01T13:47:17.916Z,933.3
2023-04-01T13:49:01.646Z,939.4
2023-04-01T13:50:45.414Z,937.5
2023-04-01T13:52:29.034Z,935.3
2023-04-01T13:54:12.788Z,937.9
2023-04-01T13:55:56.444Z,938.4
2023-04-01T13:57:40.142Z,940
2023-04-01T13:59:23.877Z,941.9
2023-04-01T14:01:07.551Z,937.4
2023-04-01T14:02:51.239Z,933.3
2023-04-01T14:04:34.958Z,935.9
2023-04-01T14:06:18.663Z,933.8
2023-04-01T14:08:02.345Z,932.5
2023-04-01T14:09:46.075Z,939.4
2023-04-01T14:11:29.791Z,947.5
2023-04-01T14:13:13.470Z,953.1
2023-04-01T14:14:57.248Z,958.9
2023-04-01T14:16:40.851Z,962.6
2023-04-01T14:18:24.564Z,963.5
2023-04-01T14:20:08.268Z,961
2023-04-01T14:21:51.970Z,960.8
2023-04-01T14:23:35.694Z,963.7
2023-04-01T14:25:19.377Z,966.9
2023-04-01T14:28:46.791Z,972.5
2023-04-01T14:30:30.488Z,975.4
2023-04-01T14:32:14.196Z,974.5
2023-04-01T14:33:57.889Z,966.7
2023-04-01T14:35:41.589Z,954.5
2023-04-01T14:37:25.330Z,942.9
2023-04-01T14:39:09.012Z,935.8
2023-04-01T14:40:52.760Z,931.8
2023-04-01T14:42:36.404Z,926.2
2023-04-01T14:44:20.126Z,924.1
2023-04-01T14:46:03.821Z,921.3
2023-04-01T14:47:47.513Z,921.1
2023-04-01T14:49:31.229Z,917.1
2023-04-01T14:51:14.917Z,914.1
2023-04-01T14:52:58.642Z,914.4
2023-04-01T14:54:42.326Z,912.6
2023-04-01T14:56:26.021Z,914
2023-04-01T14:58:09.746Z,914.6
2023-04-01T14:59:53.453Z,919.2
2023-04-01T15:01:37.142Z,926.2
2023-04-01T15:03:20.846Z,932.8
2023-04-01T15:05:04.554Z,942.3
2023-04-01T15:06:48.323Z,950
2023-04-01T15:08:32.019Z,1012.5
2023-04-01T15:10:15.690Z,1050.7
2023-04-01T15:11:59.383Z,1055.2
2023-04-01T15:13:43.179Z,1062.6
2023-04-01T15:15:26.772Z,1068.6
2023-04-01T15:17:10.478Z,1080.2
2023-04-01T15:18:54.180Z,1086.8
2023-04-01T15:20:37.876Z,1091.4
2023-04-01T15:22:23.096Z,1104.9
2023-04-01T15:24:05.311Z,1109
2023-04-01T15:25:48.997Z,1106.6
2023-04-01T15:27:32.675Z,1101.5
2023-04-01T15:29:16.412Z,1117.3
2023-04-01T15:31:00.098Z,1162.3
2023-04-01T15:32:43.832Z,1183.9
2023-04-01T15:34:27.489Z,1201.8
2023-04-01T15:36:11.263Z,1213.6
2023-04-01T15:37:54.937Z,1221.3
2023-04-01T15:39:38.613Z,1225
2023-04-01T15:41:22.306Z,1222.4
2023-04-01T15:43:06.028Z,1224.4
2023-04-01T15:44:49.916Z,1230.4
2023-04-01T15:46:33.602Z,1234.2
2023-04-01T15:48:17.289Z,1236.3
2023-04-01T15:50:00.854Z,1240.9
2023-04-01T15:51:44.779Z,1241.3
2023-04-01T15:53:28.405Z,1239.3
2023-04-01T15:55:11.932Z,1233.4
2023-04-01T15:56:55.807Z,1231.7
2023-04-01T15:58:39.424Z,1240.8
2023-04-01T16:00:23.216Z,1258.4
2023-04-01T16:02:07.012Z,1276.9
2023-04-01T16:05:34.356Z,1283.7
2023-04-01T16:07:18.033Z,1294.9
2023-04-01T16:09:01.609Z,1299.2
2023-04-01T16:10:45.436Z,1300.1
2023-04-01T16:12:29.151Z,1304.4
2023-04-01T16:14:12.851Z,1306.9
2023-04-01T16:15:56.369Z,1311.9
2023-04-01T16:17:40.088Z,1316.9
2023-04-01T16:19:23.908Z,1319.3
2023-04-01T16:21:07.682Z,1326
2023-04-01T16:22:51.388Z,1328.9
2023-04-01T16:24:35.143Z,1331.6
2023-04-01T16:26:18.594Z,1335.3
2023-04-01T16:28:02.422Z,1336
2023-04-01T16:29:46.106Z,1336.4
2023-04-01T16:31:29.850Z,1335.3
2023-04-01T16:33:13.571Z,1337.4
2023-04-01T16:34:57.233Z,1338.8
2023-04-01T16:36:40.974Z,1339.3
2023-04-01T16:38:24.591Z,1344.3
2023-04-01T16:40:08.374Z,1354.1
2023-04-01T16:41:52.030Z,1355.9
2023-04-01T16:43:35.805Z,1355.9
2023-04-01T16:45:19.367Z,1356.9
2023-04-01T16:47:03.186Z,1361.3
2023-04-01T16:48:46.860Z,1364.4
2023-04-01T16:50:30.536Z,1367.1
2023-04-01T16:52:14.414Z,1372.5
2023-04-01T16:53:57.895Z,1372.8
2023-04-01T16:55:41.738Z,1371
2023-04-01T16:57:25.439Z,1372.2
2023-04-01T16:59:09.136Z,1377.1
2023-04-01T17:00:52.744Z,1393.1
2023-04-01T17:02:36.348Z,1399.5
2023-04-01T17:04:20.181Z,1405.2
2023-04-01T17:06:03.948Z,1415.1
2023-04-01T17:07:47.651Z,1418.7
2023-04-01T17:09:31.155Z,1425.2
2023-04-01T17:11:14.863Z,1429.6
2023-04-01T17:12:58.752Z,1427.7
2023-04-01T17:14:42.457Z,1422.5
2023-04-01T17:16:26.190Z,1418.5
2023-04-01T17:18:09.915Z,1414.6
2023-04-01T17:19:53.507Z,1416.5
2023-04-01T17:21:37.096Z,1417.6
2023-04-01T17:23:20.988Z,1419.7
2023-04-01T17:25:04.675Z,1420.8
2023-04-01T17:26:48.267Z,1417.7
2023-04-01T17:28:31.903Z,1414.9
2023-04-01T17:30:15.757Z,1411
2023-04-01T17:31:59.478Z,1407.4
2023-04-01T17:33:43.184Z,1408.6
2023-04-01T17:35:26.908Z,1408.6
2023-04-01T17:37:10.667Z,1407.9
2023-04-01T17:38:54.355Z,1410.7
2023-04-01T17:40:37.830Z,1422.3
2023-04-01T17:42:21.681Z,1546.6
2023-04-01T17:45:48.972Z,1525.5
2023-04-01T17:47:32.872Z,1525.5
2023-04-01T17:49:16.399Z,1514.1
2023-04-01T17:51:00.245Z,1485.3
2023-04-01T17:52:43.829Z,1463.8
2023-04-01T17:54:27.607Z,1453.1
2023-04-01T17:56:11.382Z,1441.8
2023-04-01T17:57:54.857Z,1434.5
2023-04-01T17:59:38.775Z,1431.1
2023-04-01T18:01:22.492Z,1423
2023-04-01T18:03:06.172Z,1418.7
2023-04-01T18:04:49.843Z,1416.7
2023-04-01T18:06:33.548Z,1410.9
2023-04-01T18:08:17.270Z,1382.9
2023-04-01T18:10:01.005Z,1351
2023-04-01T18:11:44.684Z,1342.2
2023-04-01T18:13:28.362Z,1335.5
2023-04-01T18:15:12.107Z,1335.6
2023-04-01T18:16:55.787Z,1338.1
2023-04-01T18:18:39.497Z,1341.6
2023-04-01T18:20:23.145Z,1345.5
2023-04-01T18:22:06.869Z,1348.1
2023-04-01T18:23:50.580Z,1350
2023-04-01T18:25:34.274Z,1357.2
2023-04-01T18:27:17.990Z,1362.1
2023-04-01T18:29:01.538Z,1363.5
2023-04-01T18:30:45.340Z,1364.1
2023-04-01T18:32:29.138Z,1367.6
2023-04-01T18:34:12.807Z,1367.2
2023-04-01T18:35:56.498Z,1368.1
2023-04-01T18:37:40.103Z,1367
2023-04-01T18:39:23.900Z,1365.9
2023-04-01T18:41:07.594Z,1369.3
2023-04-01T18:42:51.318Z,1368.6
2023-04-01T18:44:34.997Z,1365.9
2023-04-01T18:46:18.720Z,1362.6
2023-04-01T18:48:02.345Z,1357.6
2023-04-01T18:49:46.167Z,1347.3
2023-04-01T18:51:29.768Z,1347.6
2023-04-01T18:53:13.570Z,1345.8
2023-04-01T18:54:57.225Z,1344.3
2023-04-01T18:56:41.003Z,1341.2
2023-04-01T18:58:24.680Z,1338.9
2023-04-01T19:00:08.323Z,1340.3
2023-04-01T19:01:52.034Z,1342.9
2023-04-01T19:03:35.776Z,1345.1
2023-04-01T19:05:19.270Z,1343.4
2023-04-01T19:07:03.166Z,1339.2
2023-04-01T19:08:46.882Z,1336.2
2023-04-01T19:10:30.389Z,1342.9
2023-04-01T19:12:14.262Z,1347.1
2023-04-01T19:13:57.953Z,1353.2
2023-04-01T19:15:41.622Z,1356.5
2023-04-01T19:17:25.370Z,1354.5
2023-04-01T19:19:09.094Z,1353.4
2023-04-01T19:20:52.750Z,1354.4
2023-04-01T19:22:36.533Z,1358.7
2023-04-01T19:24:20.120Z,1358.4
2023-04-01T19:26:03.745Z,1359.7
2023-04-01T19:27:47.535Z,1355.6
2023-04-01T19:29:31.294Z,1351.3
2023-04-01T19:31:14.958Z,1346.1
2023-04-01T19:32:58.684Z,1346.3
2023-04-01T19:34:42.381Z,1347.9
2023-04-01T19:36:26.099Z,1351.8
2023-04-01T19:38:09.783Z,1353.8
2023-04-01T19:39:53.498Z,1354.4
2023-04-01T19:41:37.015Z,1354
2023-04-01T19:43:20.844Z,1358.7
2023-04-01T19:45:04.584Z,1361.1
2023-04-01T19:46:48.313Z,1359
2023-04-01T19:48:31.986Z,1361.5
2023-04-01T19:50:15.729Z,1362.8
2023-04-01T19:51:59.444Z,1364.5
2023-04-01T19:53:43.134Z,1363.5
2023-04-01T19:55:26.638Z,1357.5
2023-04-01T19:57:10.402Z,1356.7
2023-04-01T19:58:54.184Z,1353.1
2023-04-01T20:00:37.782Z,1353.7
2023-04-01T20:02:21.436Z,1357.8
2023-04-01T20:04:05.204Z,1366.7
2023-04-01T20:05:48.958Z,1370.5
2023-04-01T20:07:32.623Z,1374.9
2023-04-01T20:09:16.249Z,1378.5
2023-04-01T20:11:00.113Z,1377.6
2023-04-01T20:12:43.829Z,1382.2
2023-04-01T20:14:27.349Z,1383.2
2023-04-01T20:16:11.075Z,1385.5
2023-04-01T20:17:54.742Z,1386.7
2023-04-01T20:19:38.608Z,1385.1
2023-04-01T20:21:22.261Z,1385.6
2023-04-01T20:23:05.953Z,1385.8
2023-04-01T20:24:49.649Z,1386
2023-04-01T20:26:33.264Z,1383.9
2023-04-01T20:28:17.062Z,1381.2
2023-04-01T20:30:00.715Z,1383.7
2023-04-01T20:31:44.376Z,1382.9
2023-04-01T20:33:28.229Z,1382.7
2023-04-01T20:35:11.839Z,1385.3
2023-04-01T20:36:55.643Z,1386.4
2023-04-01T20:38:39.225Z,1388.2
2023-04-01T20:40:22.962Z,1388.5
2023-04-01T20:42:06.736Z,1384.2
2023-04-01T20:43:50.356Z,1384.3
2023-04-01T20:45:33.992Z,1383.3
2023-04-01T20:47:17.830Z,1386
2023-04-01T20:49:01.556Z,1391.2
2023-04-01T20:50:45.274Z,1391
2023-04-01T20:52:28.856Z,1388.8
2023-04-01T20:54:12.633Z,1389.2
2023-04-01T20:55:56.231Z,1394.7
2023-04-01T20:57:40.053Z,1396.7
2023-04-01T20:59:23.849Z,1396.8
2023-04-01T21:01:07.470Z,1391.8
2023-04-01T21:02:51.126Z,1393.3
2023-04-01T21:04:34.743Z,1396.3
2023-04-01T21:06:18.438Z,1399.5
2023-04-01T21:08:02.264Z,1410.8
2023-04-01T21:09:46.066Z,1408.3
2023-04-01T21:11:29.649Z,1380.7
2023-04-01T21:13:13.385Z,1367.4
2023-04-01T21:14:57.158Z,1365.5
2023-04-01T21:16:40.837Z,1363
2023-04-01T21:18:24.465Z,1355.7
2023-04-01T21:20:08.143Z,1350.8
2023-04-01T21:21:51.916Z,1351.8
2023-04-01T21:23:35.482Z,1352.6
2023-04-01T21:25:19.349Z,1351.8
2023-04-01T21:27:02.971Z,1352.2
2023-04-01T21:28:46.693Z,1352.8
2023-04-01T21:30:30.436Z,1353.9
2023-04-01T21:32:14.093Z,1355.6
2023-04-01T21:33:57.702Z,1354.6
2023-04-01T21:35:41.367Z,1355
2023-04-01T21:37:25.225Z,1355.6
2023-04-01T21:39:08.949Z,1354.4
2023-04-01T21:40:52.462Z,1352.1
2023-04-01T21:42:36.329Z,1350.6
2023-04-01T21:44:19.920Z,1348.9
2023-04-01T21:46:03.673Z,1345.3
2023-04-01T21:47:47.308Z,1334.5
2023-04-01T21:49:31.125Z,1336.8
2023-04-01T21:51:14.813Z,1352.6
2023-04-01T21:52:58.489Z,1357.5
2023-04-01T21:54:42.143Z,1341.9
2023-04-01T21:56:25.979Z,1332.8
2023-04-01T21:58:09.635Z,1316.5
2023-04-01T21:59:53.189Z,1303.5
2023-04-01T22:01:37.017Z,1289.4
2023-04-01T22:03:20.727Z,1281.5
2023-04-01T22:05:04.345Z,1270.3
2023-04-01T22:06:48.113Z,1264.1
2023-04-01T22:08:31.822Z,1255.2
2023-04-01T22:10:15.405Z,1242.2
2023-04-01T22:11:59.151Z,1235.3
2023-04-01T22:13:42.908Z,1229.4
2023-04-01T22:15:26.519Z,1222.5